Philadelphia International Airport
KPHL : now visible

Airfield :











YOU CAN JOIN US ON...

 
LOGIN :

Register | Disclaimer

   EN    FR    IT 

 









Legend :    VFR   Marginal VFR   IFR   Intensive IFR   Very Intensive IFR
Visi :
Ceiling :
>= 8 km
>= 3000ft
5 to 8 km
1000 to 3000 ft
1500m to 5 km
500 to 1000 ft
800 to 1500m
200 to 500 ft
< 800m
< 200 ft
Symbols :   Thunderstorms  Fog  Heavy snow  Heavy precipitations  Wind > 20 kt







- Airport Elevation : 36 ft
- IATA code : PHL


KPHL - Philadelphia International

CURRENT METAR :
  • 191354Z 24004KT 10SM FEW009 SCT013 28/23 A2993 RMK AO2 SLP134 T02780228

EXPIRED METARs :
  • 191321Z 21005KT 7SM FEW007 SCT013 27/24 A2993 RMK AO2 T02720239
  • 191254Z 19005KT 7SM FEW005 BKN011 BKN015 26/24 A2994 RMK AO2 SLP137 T02610239
  • 191251Z 18005KT 7SM FEW005 BKN011 BKN015 26/24 A2994 RMK AO2
  • 191214Z 00000KT 7SM SCT004 BKN007 BKN012 26/24 A2993 RMK AO2 T02560239
  • 191154Z 15003KT 6SM BR FEW004 SCT008 BKN022 26/24 A2992 RMK AO2 SLP131 SCT V BKN 70002 T02560239 10256 20239 50005 $
  • 191147Z 12003KT 6SM BR FEW004 SCT007 BKN022 25/23 A2992 RMK AO2 T02500233 $
  • 191113Z 17004KT 6SM BR FEW004 SCT008 OVC020 25/23 A2993 RMK AO2 T02500233 $

TAF KPHL
Valid from the 19 at 14:00 until the 20 at 18:00 UTC


191350Z 1914/2018 21005KT P6SM SCT006 SCT015
TEMPO 1914/1915 BKN015
FM191500 23010KT P6SM SCT040
FM200100 25006KT P6SM SCT040
KZDC FIR / North America



MET'MAP, your aeronautical weather chart ! - Copyright ORBIFLY December 2007 - Disclaimer

ORBIFLY MET'MAP TEAM :

Programming & Development : Alexandra Zaïnal
Concept & Development : Baudouin d'Aumeries
Co-Development & Prog : Marc-Olivier Méhu
Technical & hardware support : Manuel Goepfert

Contact : metmap@orbifly.com




SOURCES & CREDITS :

   NOAA       Earth
Advisory